sensor_id;sensor_type;location;lat;lon;timestamp;P1;durP1;ratioP1;P2;durP2;ratioP2
46983;SDS011;34732;52.112;9.366;2023-09-07T09:46:21;4.13;;;3.72;;
46983;SDS011;34732;52.112;9.366;2023-09-07T09:49:51;5.32;;;3.30;;
46983;SDS011;34732;52.112;9.366;2023-09-07T09:53:18;5.40;;;3.83;;
46983;SDS011;34732;52.112;9.366;2023-09-07T09:56:45;9.55;;;4.03;;
46983;SDS011;34732;52.112;9.366;2023-09-07T10:00:09;5.10;;;4.07;;
46983;SDS011;34732;52.112;9.366;2023-09-07T10:03:44;6.72;;;3.63;;
46983;SDS011;34732;52.112;9.366;2023-09-07T10:07:09;4.72;;;3.67;;
46983;SDS011;34732;52.112;9.366;2023-09-07T10:10:33;5.70;;;3.90;;
46983;SDS011;34732;52.112;9.366;2023-09-07T10:13:59;8.90;;;4.20;;
46983;SDS011;34732;52.112;9.366;2023-09-07T10:17:26;11.18;;;4.20;;
46983;SDS011;34732;52.112;9.366;2023-09-07T10:27:46;6.43;;;3.97;;
46983;SDS011;34732;52.112;9.366;2023-09-07T10:31:16;5.78;;;3.88;;
46983;SDS011;34732;52.112;9.366;2023-09-07T10:34:42;6.35;;;3.65;;
46983;SDS011;34732;52.112;9.366;2023-09-07T10:38:06;5.63;;;3.95;;
46983;SDS011;34732;52.112;9.366;2023-09-07T10:44:51;5.60;;;3.63;;
46983;SDS011;34732;52.112;9.366;2023-09-07T10:48:14;7.03;;;3.67;;
46983;SDS011;34732;52.112;9.366;2023-09-07T10:51:46;6.97;;;3.95;;
46983;SDS011;34732;52.112;9.366;2023-09-07T10:55:08;4.85;;;3.97;;
46983;SDS011;34732;52.112;9.366;2023-09-07T10:58:37;5.00;;;3.55;;
46983;SDS011;34732;52.112;9.366;2023-09-07T11:02:05;10.35;;;4.38;;
46983;SDS011;34732;52.112;9.366;2023-09-07T11:05:29;4.50;;;3.78;;
46983;SDS011;34732;52.112;9.366;2023-09-07T11:08:53;4.90;;;3.35;;
46983;SDS011;34732;52.112;9.366;2023-09-07T11:15:40;5.03;;;3.83;;
46983;SDS011;34732;52.112;9.366;2023-09-07T11:19:06;4.25;;;3.85;;
46983;SDS011;34732;52.112;9.366;2023-09-07T11:22:29;4.75;;;4.22;;
46983;SDS011;34732;52.112;9.366;2023-09-07T11:25:51;4.40;;;4.00;;
46983;SDS011;34732;52.112;9.366;2023-09-07T11:29:18;5.88;;;4.13;;
46983;SDS011;34732;52.112;9.366;2023-09-07T11:32:41;6.35;;;3.70;;
46983;SDS011;34732;52.112;9.366;2023-09-07T11:36:03;6.22;;;4.47;;
46983;SDS011;34732;52.112;9.366;2023-09-07T11:39:25;5.38;;;4.25;;
46983;SDS011;34732;52.112;9.366;2023-09-07T11:46:07;3.55;;;3.25;;
46983;SDS011;34732;52.112;9.366;2023-09-07T11:49:32;7.30;;;3.65;;
46983;SDS011;34732;52.112;9.366;2023-09-07T11:52:59;5.32;;;3.88;;
46983;SDS011;34732;52.112;9.366;2023-09-07T11:56:22;5.45;;;3.40;;
46983;SDS011;34732;52.112;9.366;2023-09-07T11:59:44;4.65;;;3.25;;
46983;SDS011;34732;52.112;9.366;2023-09-07T12:03:07;4.82;;;4.18;;
46983;SDS011;34732;52.112;9.366;2023-09-07T12:09:52;4.45;;;3.60;;
46983;SDS011;34732;52.112;9.366;2023-09-07T12:13:20;4.57;;;3.40;;
46983;SDS011;34732;52.112;9.366;2023-09-07T12:16:46;4.40;;;3.72;;
46983;SDS011;34732;52.112;9.366;2023-09-07T12:20:10;5.07;;;3.17;;
46983;SDS011;34732;52.112;9.366;2023-09-07T12:23:37;3.97;;;3.40;;
46983;SDS011;34732;52.112;9.366;2023-09-07T12:26:59;6.28;;;3.53;;
46983;SDS011;34732;52.112;9.366;2023-09-07T12:30:25;4.43;;;3.75;;
46983;SDS011;34732;52.112;9.366;2023-09-07T12:33:49;3.85;;;3.45;;
46983;SDS011;34732;52.112;9.366;2023-09-07T12:37:17;4.18;;;3.60;;
46983;SDS011;34732;52.112;9.366;2023-09-07T12:40:44;4.78;;;3.38;;
46983;SDS011;34732;52.112;9.366;2023-09-07T12:44:07;5.70;;;3.42;;
46983;SDS011;34732;52.112;9.366;2023-09-07T12:47:35;6.47;;;3.45;;
46983;SDS011;34732;52.112;9.366;2023-09-07T12:50:57;4.95;;;3.90;;
46983;SDS011;34732;52.112;9.366;2023-09-07T12:54:20;3.92;;;3.35;;
46983;SDS011;34732;52.112;9.366;2023-09-07T12:57:44;5.10;;;3.88;;
46983;SDS011;34732;52.112;9.366;2023-09-07T13:01:09;5.10;;;3.97;;
46983;SDS011;34732;52.112;9.366;2023-09-07T13:04:38;6.47;;;4.07;;
46983;SDS011;34732;52.112;9.366;2023-09-07T13:08:01;5.60;;;3.47;;
46983;SDS011;34732;52.112;9.366;2023-09-07T13:11:23;5.88;;;3.88;;
46983;SDS011;34732;52.112;9.366;2023-09-07T13:14:47;6.30;;;4.75;;
46983;SDS011;34732;52.112;9.366;2023-09-07T13:18:08;6.13;;;4.28;;
46983;SDS011;34732;52.112;9.366;2023-09-07T13:21:32;5.63;;;3.60;;
46983;SDS011;34732;52.112;9.366;2023-09-07T13:24:55;4.70;;;3.58;;
46983;SDS011;34732;52.112;9.366;2023-09-07T13:28:21;4.47;;;3.70;;
46983;SDS011;34732;52.112;9.366;2023-09-07T13:31:45;4.90;;;3.95;;
46983;SDS011;34732;52.112;9.366;2023-09-07T13:35:11;4.05;;;3.33;;
46983;SDS011;34732;52.112;9.366;2023-09-07T13:38:34;5.78;;;3.47;;
46983;SDS011;34732;52.112;9.366;2023-09-07T13:41:58;4.18;;;3.65;;
46983;SDS011;34732;52.112;9.366;2023-09-07T13:48:43;6.80;;;3.83;;
46983;SDS011;34732;52.112;9.366;2023-09-07T13:55:27;7.28;;;3.80;;
46983;SDS011;34732;52.112;9.366;2023-09-07T13:58:51;7.55;;;4.50;;
46983;SDS011;34732;52.112;9.366;2023-09-07T14:02:15;7.25;;;5.13;;
46983;SDS011;34732;52.112;9.366;2023-09-07T14:05:41;9.05;;;5.07;;
46983;SDS011;34732;52.112;9.366;2023-09-07T14:44:46;12.02;;;6.75;;
46983;SDS011;34732;52.112;9.366;2023-09-07T14:48:10;17.25;;;7.40;;
46983;SDS011;34732;52.112;9.366;2023-09-07T14:51:33;9.85;;;6.40;;
46983;SDS011;34732;52.112;9.366;2023-09-07T14:58:18;7.97;;;6.30;;
46983;SDS011;34732;52.112;9.366;2023-09-07T15:01:41;9.05;;;6.38;;
46983;SDS011;34732;52.112;9.366;2023-09-07T15:05:05;10.57;;;6.53;;
46983;SDS011;34732;52.112;9.366;2023-09-07T15:08:26;8.93;;;6.30;;
46983;SDS011;34732;52.112;9.366;2023-09-07T15:11:52;9.13;;;6.10;;
46983;SDS011;34732;52.112;9.366;2023-09-07T15:15:13;8.98;;;5.65;;
46983;SDS011;34732;52.112;9.366;2023-09-07T15:18:39;9.40;;;5.50;;
46983;SDS011;34732;52.112;9.366;2023-09-07T15:22:03;12.20;;;6.15;;
46983;SDS011;34732;52.112;9.366;2023-09-07T15:25:26;9.13;;;5.82;;
46983;SDS011;34732;52.112;9.366;2023-09-07T15:28:49;13.27;;;5.97;;
46983;SDS011;34732;52.112;9.366;2023-09-07T15:32:14;8.45;;;5.75;;
46983;SDS011;34732;52.112;9.366;2023-09-07T15:35:35;11.68;;;4.90;;
46983;SDS011;34732;52.112;9.366;2023-09-07T15:38:58;10.95;;;5.93;;
46983;SDS011;34732;52.112;9.366;2023-09-07T15:42:27;9.88;;;5.75;;
46983;SDS011;34732;52.112;9.366;2023-09-07T15:45:53;7.90;;;5.60;;
46983;SDS011;34732;52.112;9.366;2023-09-07T15:49:19;8.77;;;5.38;;
46983;SDS011;34732;52.112;9.366;2023-09-07T15:52:45;12.40;;;5.45;;
46983;SDS011;34732;52.112;9.366;2023-09-07T15:56:12;6.90;;;4.88;;
46983;SDS011;34732;52.112;9.366;2023-09-07T16:02:59;6.72;;;5.05;;
46983;SDS011;34732;52.112;9.366;2023-09-07T16:06:25;8.27;;;5.10;;
46983;SDS011;34732;52.112;9.366;2023-09-07T16:09:46;6.00;;;4.97;;
46983;SDS011;34732;52.112;9.366;2023-09-07T16:13:07;8.68;;;5.28;;
46983;SDS011;34732;52.112;9.366;2023-09-07T16:16:31;10.93;;;5.90;;
46983;SDS011;34732;52.112;9.366;2023-09-07T16:19:56;10.02;;;5.25;;
46983;SDS011;34732;52.112;9.366;2023-09-07T16:23:25;10.13;;;5.28;;
46983;SDS011;34732;52.112;9.366;2023-09-07T16:26:50;12.40;;;5.28;;
46983;SDS011;34732;52.112;9.366;2023-09-07T16:30:17;7.93;;;4.80;;
46983;SDS011;34732;52.112;9.366;2023-09-07T16:33:38;10.25;;;4.70;;
46983;SDS011;34732;52.112;9.366;2023-09-07T16:37:04;7.70;;;4.80;;
46983;SDS011;34732;52.112;9.366;2023-09-07T16:43:48;7.32;;;4.85;;
46983;SDS011;34732;52.112;9.366;2023-09-07T16:47:14;8.23;;;5.03;;
46983;SDS011;34732;52.112;9.366;2023-09-07T16:50:43;8.52;;;5.25;;
46983;SDS011;34732;52.112;9.366;2023-09-07T16:54:05;5.95;;;4.57;;
46983;SDS011;34732;52.112;9.366;2023-09-07T16:57:28;9.02;;;4.43;;
46983;SDS011;34732;52.112;9.366;2023-09-07T17:00:54;6.78;;;4.63;;
46983;SDS011;34732;52.112;9.366;2023-09-07T17:04:23;6.47;;;4.80;;
46983;SDS011;34732;52.112;9.366;2023-09-07T17:07:47;9.88;;;5.20;;
46983;SDS011;34732;52.112;9.366;2023-09-07T17:11:13;6.45;;;4.50;;
46983;SDS011;34732;52.112;9.366;2023-09-07T17:14:39;6.88;;;4.85;;
46983;SDS011;34732;52.112;9.366;2023-09-07T17:18:06;8.45;;;4.50;;
46983;SDS011;34732;52.112;9.366;2023-09-07T17:21:27;6.25;;;4.35;;
46983;SDS011;34732;52.112;9.366;2023-09-07T17:24:56;7.40;;;4.63;;
46983;SDS011;34732;52.112;9.366;2023-09-07T17:28:20;4.45;;;4.03;;
46983;SDS011;34732;52.112;9.366;2023-09-07T17:31:41;5.63;;;4.30;;
46983;SDS011;34732;52.112;9.366;2023-09-07T17:35:05;6.63;;;4.72;;
46983;SDS011;34732;52.112;9.366;2023-09-07T17:38:27;6.35;;;4.30;;
46983;SDS011;34732;52.112;9.366;2023-09-07T17:45:14;6.13;;;4.15;;
46983;SDS011;34732;52.112;9.366;2023-09-07T17:48:41;6.28;;;4.13;;
46983;SDS011;34732;52.112;9.366;2023-09-07T17:52:04;4.72;;;4.32;;
46983;SDS011;34732;52.112;9.366;2023-09-07T17:55:28;4.72;;;4.13;;
46983;SDS011;34732;52.112;9.366;2023-09-07T17:58:52;4.70;;;4.05;;
46983;SDS011;34732;52.112;9.366;2023-09-07T18:02:18;5.25;;;4.75;;
46983;SDS011;34732;52.112;9.366;2023-09-07T18:05:50;5.20;;;4.22;;
46983;SDS011;34732;52.112;9.366;2023-09-07T18:09:16;4.47;;;4.05;;
46983;SDS011;34732;52.112;9.366;2023-09-07T18:12:39;4.80;;;4.40;;
46983;SDS011;34732;52.112;9.366;2023-09-07T18:16:00;4.95;;;4.15;;
46983;SDS011;34732;52.112;9.366;2023-09-07T18:19:26;7.10;;;3.92;;
46983;SDS011;34732;52.112;9.366;2023-09-07T18:22:52;5.03;;;4.53;;
46983;SDS011;34732;52.112;9.366;2023-09-07T18:26:14;7.60;;;4.80;;
46983;SDS011;34732;52.112;9.366;2023-09-07T18:29:37;6.13;;;4.15;;
46983;SDS011;34732;52.112;9.366;2023-09-07T18:36:23;7.20;;;3.72;;
46983;SDS011;34732;52.112;9.366;2023-09-07T18:39:46;5.22;;;4.07;;
46983;SDS011;34732;52.112;9.366;2023-09-07T18:43:12;6.70;;;4.20;;
46983;SDS011;34732;52.112;9.366;2023-09-07T18:46:38;7.20;;;3.95;;
46983;SDS011;34732;52.112;9.366;2023-09-07T18:50:04;4.55;;;3.92;;
46983;SDS011;34732;52.112;9.366;2023-09-07T18:53:26;6.25;;;4.22;;
46983;SDS011;34732;52.112;9.366;2023-09-07T18:56:51;9.68;;;3.92;;
46983;SDS011;34732;52.112;9.366;2023-09-07T19:00:13;8.65;;;3.95;;
46983;SDS011;34732;52.112;9.366;2023-09-07T19:03:43;5.70;;;3.78;;
46983;SDS011;34732;52.112;9.366;2023-09-07T19:07:10;10.55;;;4.03;;
46983;SDS011;34732;52.112;9.366;2023-09-07T19:10:37;11.15;;;4.57;;
46983;SDS011;34732;52.112;9.366;2023-09-07T19:14:02;10.98;;;4.68;;
46983;SDS011;34732;52.112;9.366;2023-09-07T19:17:28;9.48;;;4.90;;
46983;SDS011;34732;52.112;9.366;2023-09-07T19:20:56;9.20;;;4.90;;
46983;SDS011;34732;52.112;9.366;2023-09-07T19:24:22;7.20;;;4.70;;
46983;SDS011;34732;52.112;9.366;2023-09-07T19:27:50;6.90;;;4.75;;
46983;SDS011;34732;52.112;9.366;2023-09-07T19:31:16;8.82;;;4.50;;
